createdAt,value
2023-05-05T00:00:27.409Z,1.52
2023-05-05T00:01:31.227Z,1.77
2023-05-05T00:02:32.924Z,1.60
2023-05-05T00:03:38.191Z,1.40
2023-05-05T00:04:40.138Z,1.90
2023-05-05T00:05:42.266Z,1.55
2023-05-05T00:06:43.839Z,1.83
2023-05-05T00:07:45.444Z,1.65
2023-05-05T00:08:47.466Z,1.90
2023-05-05T00:09:49.096Z,1.63
2023-05-05T00:10:52.534Z,1.67
2023-05-05T00:11:54.205Z,1.70
2023-05-05T00:12:55.847Z,1.92
2023-05-05T00:13:57.599Z,1.90
2023-05-05T00:14:59.318Z,1.90
2023-05-05T00:16:01.034Z,1.77
2023-05-05T00:17:04.138Z,1.70
2023-05-05T00:18:06.050Z,1.80
2023-05-05T00:19:07.757Z,1.85
2023-05-05T00:20:09.969Z,1.67
2023-05-05T00:21:11.603Z,1.60
2023-05-05T00:22:13.208Z,1.55
2023-05-05T00:23:16.564Z,1.60
2023-05-05T00:24:18.564Z,2.25
2023-05-05T00:25:20.338Z,1.77
2023-05-05T00:26:22.041Z,1.65
2023-05-05T00:27:25.434Z,1.60
2023-05-05T00:28:27.571Z,1.50
2023-05-05T00:29:30.052Z,1.60
2023-05-05T00:30:31.861Z,1.80
2023-05-05T00:31:34.042Z,1.85
2023-05-05T00:32:35.747Z,1.40
2023-05-05T00:33:37.401Z,1.88
2023-05-05T00:34:39.042Z,2.25
2023-05-05T00:35:41.247Z,1.90
2023-05-05T00:36:43.188Z,1.70
2023-05-05T00:37:45.055Z,1.92
2023-05-05T00:38:47.050Z,1.77
2023-05-05T00:39:48.821Z,1.90
2023-05-05T00:40:50.826Z,1.67
2023-05-05T00:41:55.687Z,2.00
2023-05-05T00:42:59.591Z,1.75
2023-05-05T00:44:01.850Z,1.90
2023-05-05T00:45:04.248Z,2.28
2023-05-05T00:46:26.544Z,1.80
2023-05-05T00:47:28.573Z,1.80
2023-05-05T00:48:31.317Z,1.88
2023-05-05T00:49:36.640Z,1.80
2023-05-05T00:50:38.930Z,2.10
2023-05-05T00:51:40.532Z,1.70
2023-05-05T00:52:42.936Z,2.15
2023-05-05T00:53:45.217Z,2.00
2023-05-05T00:54:47.142Z,2.25
2023-05-05T00:55:49.642Z,1.98
2023-05-05T00:56:51.402Z,1.80
2023-05-05T00:57:53.916Z,1.73
2023-05-05T00:58:56.366Z,2.15
2023-05-05T00:59:59.966Z,1.80
2023-05-05T01:01:02.002Z,1.70
2023-05-05T01:02:04.413Z,2.10
2023-05-05T01:03:06.563Z,1.77
2023-05-05T01:04:09.843Z,2.30
2023-05-05T01:05:14.479Z,1.95
2023-05-05T01:06:57.371Z,1.98
2023-05-05T01:08:29.393Z,2.03
2023-05-05T01:09:48.234Z,1.95
2023-05-05T01:11:03.274Z,2.03
2023-05-05T01:12:32.837Z,2.15
2023-05-05T01:14:16.966Z,1.92
2023-05-05T01:15:26.616Z,2.15
2023-05-05T01:16:33.472Z,1.98
2023-05-05T01:18:05.098Z,2.10
2023-05-05T01:19:28.235Z,2.40
2023-05-05T01:20:45.386Z,2.30
2023-05-05T01:22:00.950Z,2.17
2023-05-05T01:23:06.817Z,2.53
2023-05-05T01:24:40.970Z,2.70
2023-05-05T01:26:09.054Z,2.20
2023-05-05T01:27:16.560Z,2.40
2023-05-05T01:29:06.402Z,2.53
2023-05-05T01:30:20.454Z,2.72
2023-05-05T01:31:36.278Z,2.40
2023-05-05T01:32:49.862Z,2.53
2023-05-05T01:34:04.086Z,2.50
2023-05-05T01:35:36.284Z,2.40
2023-05-05T01:36:45.197Z,2.55
2023-05-05T01:37:46.724Z,2.15
2023-05-05T01:38:55.710Z,2.75
2023-05-05T01:40:04.793Z,2.83
2023-05-05T01:41:17.629Z,3.10
2023-05-05T01:42:22.651Z,2.50
2023-05-05T01:43:29.903Z,2.60
2023-05-05T01:44:36.994Z,2.70
2023-05-05T01:45:42.458Z,2.70
2023-05-05T01:46:44.302Z,2.85
2023-05-05T01:47:47.841Z,2.78
2023-05-05T01:48:52.578Z,3.13
2023-05-05T01:49:58.781Z,3.03
2023-05-05T01:51:08.103Z,2.95
2023-05-05T01:52:11.222Z,2.80
2023-05-05T01:53:17.660Z,3.30
2023-05-05T01:54:20.438Z,2.80
2023-05-05T01:55:29.091Z,2.67
2023-05-05T01:56:32.811Z,2.47
2023-05-05T01:57:35.972Z,2.80
2023-05-05T01:58:39.128Z,2.85
2023-05-05T01:59:40.990Z,2.78
2023-05-05T02:00:44.091Z,3.25
2023-05-05T02:01:50.646Z,3.05
2023-05-05T02:02:58.627Z,2.80
2023-05-05T02:04:03.699Z,2.75
2023-05-05T02:05:07.076Z,2.80
2023-05-05T02:06:11.135Z,2.78
2023-05-05T02:07:14.034Z,2.53
2023-05-05T02:08:16.925Z,3.28
2023-05-05T02:09:20.262Z,2.75
2023-05-05T02:10:22.016Z,2.72
2023-05-05T02:11:23.968Z,2.80
2023-05-05T02:12:31.029Z,3.00
2023-05-05T02:13:33.636Z,2.65
2023-05-05T02:14:36.957Z,2.95
2023-05-05T02:15:40.347Z,3.22
2023-05-05T02:16:42.905Z,3.90
2023-05-05T02:17:46.445Z,3.63
2023-05-05T02:18:49.901Z,3.35
2023-05-05T02:19:53.157Z,3.30
2023-05-05T02:20:55.471Z,2.90
2023-05-05T02:21:57.924Z,3.35
2023-05-05T02:23:05.659Z,3.45
2023-05-05T02:24:10.264Z,3.15
2023-05-05T02:25:12.013Z,3.63
2023-05-05T02:26:16.776Z,2.90
2023-05-05T02:27:21.806Z,3.72
2023-05-05T02:28:33.454Z,3.80
2023-05-05T02:29:40.639Z,3.38
2023-05-05T02:30:43.812Z,3.40
2023-05-05T02:31:49.928Z,3.20
2023-05-05T02:33:06.750Z,3.67
2023-05-05T02:34:09.571Z,3.83
2023-05-05T02:35:15.579Z,4.25
2023-05-05T02:36:25.907Z,3.35
2023-05-05T02:37:34.812Z,4.05
2023-05-05T02:38:41.850Z,4.00
2023-05-05T02:39:59.242Z,4.40
2023-05-05T02:41:04.932Z,4.07
2023-05-05T02:42:09.292Z,3.90
2023-05-05T02:43:15.558Z,4.25
2023-05-05T02:44:20.117Z,4.05
2023-05-05T02:45:26.818Z,4.22
2023-05-05T02:46:32.704Z,3.92
2023-05-05T02:47:38.652Z,4.25
2023-05-05T02:49:48.472Z,4.07
2023-05-05T02:50:50.325Z,4.55
2023-05-05T02:53:09.278Z,4.20
2023-05-05T02:54:11.274Z,4.90
2023-05-05T02:55:13.952Z,4.22
2023-05-05T02:56:47.681Z,4.47
2023-05-05T02:58:24.961Z,4.60
2023-05-05T03:00:51.136Z,4.60
2023-05-05T03:01:56.943Z,5.05
2023-05-05T03:03:06.811Z,4.57
2023-05-05T03:04:16.283Z,4.45
2023-05-05T03:05:28.329Z,4.75
2023-05-05T03:06:36.899Z,4.82
2023-05-05T03:07:43.090Z,4.53
2023-05-05T03:09:03.301Z,5.82
2023-05-05T03:10:18.973Z,4.45
2023-05-05T03:11:37.886Z,4.53
2023-05-05T03:12:49.633Z,4.70
2023-05-05T03:14:07.098Z,5.53
2023-05-05T03:15:10.480Z,5.25
2023-05-05T03:16:15.236Z,5.15
2023-05-05T03:17:18.839Z,5.13
2023-05-05T03:18:24.702Z,5.30
2023-05-05T03:19:36.521Z,5.50
2023-05-05T03:20:40.695Z,5.30
2023-05-05T03:21:45.326Z,5.82
2023-05-05T03:22:47.892Z,5.65
2023-05-05T03:23:50.166Z,5.70
2023-05-05T03:24:55.129Z,4.63
2023-05-05T03:25:59.128Z,6.00
2023-05-05T03:27:10.475Z,5.43
2023-05-05T03:28:15.624Z,5.10
2023-05-05T03:29:17.962Z,6.03
2023-05-05T03:30:20.386Z,5.13
2023-05-05T03:31:25.448Z,5.65
2023-05-05T03:32:31.417Z,5.90
2023-05-05T03:33:33.228Z,6.22
2023-05-05T03:34:37.452Z,5.82
2023-05-05T03:35:40.420Z,6.43
2023-05-05T03:36:45.002Z,6.47
2023-05-05T03:37:49.743Z,5.80
2023-05-05T03:38:53.189Z,5.63
2023-05-05T03:39:56.594Z,6.30
2023-05-05T03:41:02.661Z,5.75
2023-05-05T03:42:07.697Z,5.95
2023-05-05T03:43:10.626Z,6.22
2023-05-05T03:44:13.693Z,5.70
2023-05-05T03:45:16.437Z,6.10
2023-05-05T03:46:18.655Z,6.50
2023-05-05T03:47:20.648Z,5.55
2023-05-05T03:48:22.674Z,5.63
2023-05-05T03:49:25.779Z,5.93
2023-05-05T03:50:28.118Z,6.57
2023-05-05T03:51:31.543Z,6.60
2023-05-05T03:52:34.687Z,7.13
2023-05-05T03:53:36.667Z,7.40
2023-05-05T03:54:42.518Z,6.50
2023-05-05T03:55:44.935Z,6.75
2023-05-05T03:56:46.783Z,5.95
2023-05-05T03:57:48.652Z,6.25
2023-05-05T03:58:50.228Z,6.97
2023-05-05T03:59:52.900Z,6.78
2023-05-05T04:00:55.055Z,6.72
2023-05-05T04:01:57.588Z,6.05
2023-05-05T04:02:59.849Z,6.20
2023-05-05T04:04:02.718Z,6.07
2023-05-05T04:05:04.869Z,6.40
2023-05-05T04:06:06.643Z,6.55
2023-05-05T04:07:09.173Z,7.05
2023-05-05T04:08:10.978Z,5.95
2023-05-05T04:09:15.432Z,6.72
2023-05-05T04:10:18.608Z,7.03
2023-05-05T04:11:24.098Z,6.65
2023-05-05T04:12:29.054Z,6.72
2023-05-05T04:13:31.825Z,6.57
2023-05-05T04:14:33.948Z,6.80
2023-05-05T04:15:35.793Z,7.10
2023-05-05T04:16:37.890Z,7.05
2023-05-05T04:17:39.870Z,7.03
2023-05-05T04:18:41.779Z,6.28
2023-05-05T04:19:44.187Z,6.57
2023-05-05T04:20:46.670Z,7.20
2023-05-05T04:21:49.533Z,6.97
2023-05-05T04:22:52.725Z,6.22
2023-05-05T04:23:55.391Z,7.05
2023-05-05T04:24:57.756Z,7.20
2023-05-05T04:25:59.819Z,7.35
2023-05-05T04:27:02.473Z,6.82
2023-05-05T04:28:05.175Z,8.27
2023-05-05T04:29:09.524Z,7.18
2023-05-05T04:30:11.808Z,6.28
2023-05-05T04:31:15.569Z,6.82
2023-05-05T04:32:18.591Z,6.35
2023-05-05T04:33:20.249Z,6.40
2023-05-05T04:34:23.846Z,6.70
2023-05-05T04:35:26.492Z,6.50
2023-05-05T04:36:28.558Z,7.22
2023-05-05T04:37:30.320Z,6.72
2023-05-05T04:38:33.072Z,6.78
2023-05-05T04:39:35.507Z,6.10
2023-05-05T04:40:42.013Z,5.90
2023-05-05T04:41:45.145Z,5.75
2023-05-05T04:42:46.777Z,7.15
2023-05-05T04:43:48.720Z,6.90
2023-05-05T04:44:50.620Z,5.85
2023-05-05T04:45:56.038Z,6.68
2023-05-05T04:47:01.604Z,7.03
2023-05-05T04:48:05.185Z,5.80
2023-05-05T04:49:07.029Z,6.50
2023-05-05T04:50:10.421Z,6.65
2023-05-05T04:51:13.500Z,6.43
2023-05-05T04:52:15.675Z,5.80
2023-05-05T04:53:17.959Z,5.55
2023-05-05T04:54:19.854Z,5.95
2023-05-05T04:55:21.513Z,6.20
2023-05-05T04:56:23.480Z,6.75
2023-05-05T04:57:25.285Z,6.50
2023-05-05T04:58:28.575Z,6.45
2023-05-05T04:59:30.502Z,6.07
2023-05-05T05:00:32.681Z,6.90
2023-05-05T05:01:36.224Z,6.70
2023-05-05T05:02:39.749Z,5.97
2023-05-05T05:03:41.683Z,6.10
2023-05-05T05:04:43.396Z,6.18
2023-05-05T05:05:46.251Z,6.80
2023-05-05T05:06:48.546Z,6.32
2023-05-05T05:07:50.676Z,6.80
2023-05-05T05:08:52.962Z,6.88
2023-05-05T05:09:54.808Z,6.95
2023-05-05T05:10:56.559Z,6.43
2023-05-05T05:12:03.022Z,5.70
2023-05-05T05:13:04.879Z,6.40
2023-05-05T05:14:06.883Z,6.03
2023-05-05T05:15:09.432Z,6.53
2023-05-05T05:16:11.597Z,5.53
2023-05-05T05:17:13.674Z,5.97
2023-05-05T05:18:16.047Z,6.45
2023-05-05T05:19:17.854Z,6.95
2023-05-05T05:20:19.990Z,6.78
2023-05-05T05:21:22.511Z,6.35
2023-05-05T05:22:24.631Z,5.95
2023-05-05T05:23:26.998Z,5.97
2023-05-05T05:24:28.798Z,6.82
2023-05-05T05:25:30.507Z,6.55
2023-05-05T05:26:32.710Z,6.20
2023-05-05T05:27:34.683Z,6.32
2023-05-05T05:28:36.398Z,6.95
2023-05-05T05:29:38.598Z,6.72
2023-05-05T05:30:40.552Z,5.78
2023-05-05T05:31:44.052Z,5.80
2023-05-05T05:32:45.701Z,5.60
2023-05-05T05:33:47.575Z,6.68
2023-05-05T05:34:50.028Z,5.93
2023-05-05T05:35:51.860Z,6.93
2023-05-05T05:36:55.386Z,6.38
2023-05-05T05:37:57.501Z,6.20
2023-05-05T05:38:59.928Z,6.25
2023-05-05T05:40:05.071Z,5.80
2023-05-05T05:41:08.444Z,6.05
2023-05-05T05:42:11.964Z,5.93
2023-05-05T05:43:14.643Z,5.75
2023-05-05T05:44:16.292Z,5.88
2023-05-05T05:45:18.218Z,5.70
2023-05-05T05:46:19.974Z,6.22
2023-05-05T05:47:21.892Z,6.00
2023-05-05T05:48:28.524Z,5.75
2023-05-05T05:49:31.489Z,5.95
2023-05-05T05:50:33.252Z,5.20
2023-05-05T05:51:34.887Z,5.85
2023-05-05T05:52:36.857Z,6.13
2023-05-05T05:53:40.465Z,5.38
2023-05-05T05:54:43.456Z,5.78
2023-05-05T05:55:46.578Z,5.72
2023-05-05T05:56:49.005Z,5.82
2023-05-05T05:57:51.186Z,5.55
2023-05-05T05:58:52.994Z,5.35
2023-05-05T05:59:55.105Z,5.72
2023-05-05T06:00:59.137Z,6.20
2023-05-05T06:02:01.638Z,5.55
2023-05-05T06:03:03.817Z,5.00
2023-05-05T06:04:09.092Z,5.68
2023-05-05T06:05:13.086Z,6.07
2023-05-05T06:06:16.499Z,5.63
2023-05-05T06:07:18.990Z,5.35
2023-05-05T06:08:23.053Z,6.38
2023-05-05T06:09:27.862Z,5.53
2023-05-05T06:10:30.307Z,6.25
2023-05-05T06:11:37.179Z,6.05
2023-05-05T06:12:38.901Z,5.18
2023-05-05T06:13:40.494Z,5.18
2023-05-05T06:14:42.266Z,5.50
2023-05-05T06:15:43.887Z,5.55
2023-05-05T06:16:47.846Z,4.80
2023-05-05T06:17:54.387Z,5.07
2023-05-05T06:18:57.217Z,5.43
2023-05-05T06:19:59.502Z,5.93
2023-05-05T06:21:02.051Z,5.43
2023-05-05T06:22:05.908Z,5.30
2023-05-05T06:23:08.032Z,5.07
2023-05-05T06:24:14.796Z,4.95
2023-05-05T06:25:17.259Z,5.25
2023-05-05T06:26:20.027Z,5.10
2023-05-05T06:27:21.658Z,5.15
2023-05-05T06:28:23.446Z,5.10
2023-05-05T06:29:25.721Z,5.32
2023-05-05T06:30:27.487Z,5.38
2023-05-05T06:31:29.169Z,5.05
2023-05-05T06:32:30.872Z,5.13
2023-05-05T06:33:32.593Z,5.68
2023-05-05T06:34:34.805Z,4.95
2023-05-05T06:35:36.569Z,5.20
2023-05-05T06:36:38.536Z,5.03
2023-05-05T06:37:40.303Z,4.50
2023-05-05T06:38:41.937Z,4.80
2023-05-05T06:39:43.586Z,4.53
2023-05-05T06:40:48.606Z,5.15
2023-05-05T06:41:50.191Z,5.00
2023-05-05T06:42:51.806Z,4.70
2023-05-05T06:43:58.594Z,4.70
2023-05-05T06:45:00.478Z,5.18
2023-05-05T06:46:02.051Z,4.85
2023-05-05T06:47:03.938Z,4.43
2023-05-05T06:48:05.812Z,4.30
2023-05-05T06:49:07.519Z,4.45
2023-05-05T06:50:09.658Z,5.28
2023-05-05T06:51:11.613Z,5.20
2023-05-05T06:52:13.330Z,4.60
2023-05-05T06:53:14.964Z,4.70
2023-05-05T06:54:16.828Z,5.60
2023-05-05T06:55:18.727Z,4.90
2023-05-05T06:56:21.032Z,4.50
2023-05-05T06:57:23.017Z,4.70
2023-05-05T06:58:25.180Z,4.88
2023-05-05T06:59:26.902Z,4.68
2023-05-05T07:00:28.603Z,4.03
2023-05-05T07:01:30.214Z,4.72
2023-05-05T07:02:31.906Z,4.40
2023-05-05T07:03:34.033Z,4.10
2023-05-05T07:04:36.531Z,4.35
2023-05-05T07:05:38.768Z,4.68
2023-05-05T07:06:40.412Z,4.13
2023-05-05T07:07:55.211Z,4.68
2023-05-05T07:08:57.867Z,4.38
2023-05-05T07:10:00.128Z,4.53
2023-05-05T07:11:01.859Z,4.60
2023-05-05T07:12:04.010Z,4.40
2023-05-05T07:13:07.451Z,4.97
2023-05-05T07:14:09.366Z,4.80
2023-05-05T07:15:23.247Z,5.18
2023-05-05T07:16:28.805Z,4.72
2023-05-05T07:17:30.581Z,4.30
2023-05-05T07:18:33.541Z,4.40
2023-05-05T07:19:35.390Z,4.38
2023-05-05T07:20:36.960Z,4.43
2023-05-05T07:21:39.724Z,4.30
2023-05-05T07:22:41.577Z,4.20
2023-05-05T07:23:43.178Z,3.63
2023-05-05T07:24:45.022Z,4.15
2023-05-05T07:25:46.681Z,4.40
2023-05-05T07:26:48.440Z,4.03
2023-05-05T07:27:50.268Z,4.05
2023-05-05T07:28:58.936Z,3.92
2023-05-05T07:31:03.150Z,3.22
2023-05-05T07:32:05.299Z,4.93
2023-05-05T07:33:07.002Z,3.72
2023-05-05T07:34:08.748Z,4.47
2023-05-05T07:35:10.401Z,4.40
2023-05-05T07:36:12.055Z,4.00
2023-05-05T07:37:13.613Z,4.07
2023-05-05T07:38:15.211Z,4.05
2023-05-05T07:39:18.538Z,3.92
2023-05-05T07:40:20.543Z,4.13
2023-05-05T07:41:22.287Z,4.47
2023-05-05T07:42:24.034Z,3.92
2023-05-05T07:43:25.673Z,4.28
2023-05-05T07:44:27.669Z,4.15
2023-05-05T07:45:29.280Z,3.78
2023-05-05T07:46:30.893Z,3.72
2023-05-05T07:47:32.880Z,4.10
2023-05-05T07:48:34.740Z,3.83
2023-05-05T07:49:36.692Z,4.20
2023-05-05T07:50:38.772Z,3.85
2023-05-05T07:51:40.360Z,3.85
2023-05-05T07:52:47.903Z,3.80
2023-05-05T07:53:51.500Z,4.07
2023-05-05T07:54:53.181Z,4.53
2023-05-05T07:55:54.918Z,3.22
2023-05-05T07:56:57.472Z,4.50
2023-05-05T07:57:59.091Z,3.75
2023-05-05T07:59:00.991Z,4.43
2023-05-05T08:00:03.274Z,3.65
2023-05-05T08:01:13.653Z,4.15
2023-05-05T08:02:15.669Z,4.28
2023-05-05T08:03:20.217Z,4.13
2023-05-05T08:04:21.926Z,3.60
2023-05-05T08:05:23.762Z,3.88
2023-05-05T08:06:25.571Z,3.90
2023-05-05T08:07:27.363Z,4.13
2023-05-05T08:08:28.915Z,4.13
2023-05-05T08:09:30.479Z,3.83
2023-05-05T08:10:32.018Z,4.07
2023-05-05T08:11:33.636Z,3.67
2023-05-05T08:12:35.987Z,4.15
2023-05-05T08:13:39.202Z,3.75
2023-05-05T08:14:42.578Z,3.70
2023-05-05T08:15:45.148Z,3.83
2023-05-05T08:16:46.785Z,3.75
2023-05-05T08:17:50.108Z,3.88
2023-05-05T08:18:52.478Z,4.22
2023-05-05T08:19:54.313Z,3.60
2023-05-05T08:20:56.090Z,4.05
2023-05-05T08:22:00.062Z,4.38
2023-05-05T08:23:03.143Z,4.32
2023-05-05T08:24:04.801Z,3.97
2023-05-05T08:25:07.120Z,3.92
2023-05-05T08:26:11.608Z,3.55
2023-05-05T08:27:14.080Z,4.07
2023-05-05T08:28:15.844Z,3.88
2023-05-05T08:29:17.629Z,3.58
2023-05-05T08:30:21.734Z,4.00
2023-05-05T08:31:23.371Z,3.60
2023-05-05T08:32:25.539Z,3.70
2023-05-05T08:33:28.663Z,3.80
2023-05-05T08:34:30.464Z,4.20
2023-05-05T08:35:32.046Z,3.80
2023-05-05T08:36:33.721Z,4.05
2023-05-05T08:37:35.366Z,4.20
2023-05-05T08:38:36.949Z,3.67
2023-05-05T08:39:38.862Z,3.72
2023-05-05T08:40:41.320Z,4.03
2023-05-05T08:41:43.156Z,3.53
2023-05-05T08:42:45.696Z,3.55
2023-05-05T08:43:48.120Z,3.83
2023-05-05T08:44:49.926Z,4.45
2023-05-05T08:45:51.929Z,4.03
2023-05-05T08:46:55.152Z,3.80
2023-05-05T08:47:58.599Z,3.78
2023-05-05T08:49:03.719Z,3.50
2023-05-05T08:50:05.965Z,3.88
2023-05-05T08:51:21.660Z,3.83
2023-05-05T08:52:24.294Z,3.92
2023-05-05T08:53:43.720Z,4.07
2023-05-05T08:54:51.768Z,3.50
2023-05-05T08:56:00.701Z,3.75
2023-05-05T08:57:06.418Z,3.88
2023-05-05T08:58:08.950Z,3.38
2023-05-05T08:59:11.962Z,3.63
2023-05-05T09:00:20.604Z,3.58
2023-05-05T09:01:22.790Z,3.63
2023-05-05T09:02:28.844Z,4.30
2023-05-05T09:03:32.502Z,3.85
2023-05-05T09:04:37.825Z,3.63
2023-05-05T09:05:43.478Z,3.55
2023-05-05T09:06:45.215Z,3.83
2023-05-05T09:07:47.528Z,3.92
2023-05-05T09:08:49.736Z,4.00
2023-05-05T09:09:51.548Z,3.47
2023-05-05T09:10:55.194Z,3.70
2023-05-05T09:11:59.027Z,3.65
2023-05-05T09:13:00.777Z,3.85
2023-05-05T09:14:02.831Z,4.18
2023-05-05T09:15:05.022Z,3.92
2023-05-05T09:16:07.652Z,3.40
2023-05-05T09:17:24.371Z,3.55
2023-05-05T09:18:26.691Z,4.03
2023-05-05T09:19:28.693Z,3.65
2023-05-05T09:20:35.536Z,3.95
2023-05-05T09:21:46.447Z,3.60
2023-05-05T09:22:48.630Z,4.03
2023-05-05T09:24:11.294Z,3.90
2023-05-05T09:25:15.012Z,3.65
2023-05-05T09:26:17.020Z,3.97
2023-05-05T09:27:25.665Z,3.90
2023-05-05T09:28:28.054Z,4.40
2023-05-05T09:29:30.213Z,3.70
2023-05-05T09:30:31.820Z,3.78
2023-05-05T09:31:34.930Z,3.50
2023-05-05T09:32:50.856Z,4.20
2023-05-05T09:33:52.844Z,3.92
2023-05-05T09:34:59.710Z,3.53
2023-05-05T09:36:01.704Z,3.33
2023-05-05T09:37:03.700Z,3.75
2023-05-05T09:38:12.045Z,3.67
2023-05-05T09:39:18.257Z,3.88
2023-05-05T09:40:21.638Z,4.07
2023-05-05T09:41:43.848Z,3.55
2023-05-05T09:42:45.764Z,3.80
2023-05-05T09:43:52.072Z,4.00
2023-05-05T09:44:54.467Z,4.00
2023-05-05T09:46:07.554Z,3.95
2023-05-05T09:47:18.087Z,4.10
2023-05-05T09:48:32.268Z,3.88
2023-05-05T09:49:36.254Z,3.97
2023-05-05T09:50:44.525Z,3.80
2023-05-05T09:51:47.248Z,3.22
2023-05-05T09:53:06.881Z,3.55
2023-05-05T09:54:08.628Z,3.47
2023-05-05T09:55:19.764Z,4.20
2023-05-05T09:56:21.615Z,4.03
2023-05-05T09:57:28.532Z,4.10
2023-05-05T09:58:31.062Z,3.72
2023-05-05T09:59:33.083Z,3.90
2023-05-05T10:00:39.127Z,4.47
2023-05-05T10:01:43.526Z,3.78
2023-05-05T10:02:45.521Z,3.53
2023-05-05T10:03:52.316Z,3.30
2023-05-05T10:05:05.034Z,3.28
2023-05-05T10:06:07.899Z,3.55
2023-05-05T10:07:23.078Z,3.70
2023-05-05T10:08:31.741Z,4.30
2023-05-05T10:09:33.587Z,3.80
2023-05-05T10:10:35.397Z,3.53
2023-05-05T10:11:37.187Z,3.47
2023-05-05T10:12:39.889Z,3.60
2023-05-05T10:13:42.065Z,3.75
2023-05-05T10:14:44.032Z,4.05
2023-05-05T10:15:47.482Z,3.40
2023-05-05T10:16:55.253Z,3.90
2023-05-05T10:18:07.371Z,3.35
2023-05-05T10:19:15.079Z,3.33
2023-05-05T10:20:18.716Z,3.90
2023-05-05T10:21:21.750Z,3.63
2023-05-05T10:22:24.982Z,3.30
2023-05-05T10:23:47.814Z,4.60
2023-05-05T10:24:57.836Z,4.15
2023-05-05T10:26:05.438Z,3.20
2023-05-05T10:27:17.962Z,4.25
2023-05-05T10:28:41.966Z,3.50
2023-05-05T10:30:02.704Z,4.00
2023-05-05T10:31:23.934Z,3.65
2023-05-05T10:33:09.081Z,4.15
2023-05-05T10:34:19.005Z,3.28
2023-05-05T10:35:22.462Z,3.72
2023-05-05T10:36:25.620Z,3.47
2023-05-05T10:37:28.735Z,3.60
2023-05-05T10:38:31.536Z,3.67
2023-05-05T10:39:37.474Z,3.55
2023-05-05T10:40:46.544Z,3.28
2023-05-05T10:41:48.525Z,3.05
2023-05-05T10:42:50.920Z,3.50
2023-05-05T10:43:57.276Z,3.50
2023-05-05T10:44:58.993Z,3.50
2023-05-05T10:46:01.412Z,3.85
2023-05-05T10:47:03.960Z,3.70
2023-05-05T10:48:12.855Z,4.07
2023-05-05T10:49:28.800Z,3.75
2023-05-05T10:50:35.959Z,3.80
2023-05-05T10:51:49.733Z,3.55
2023-05-05T10:53:01.023Z,4.00
2023-05-05T10:54:24.660Z,4.07
2023-05-05T10:55:46.408Z,3.70
2023-05-05T10:56:48.789Z,3.65
2023-05-05T10:57:53.638Z,3.33
2023-05-05T10:59:00.335Z,3.60
2023-05-05T11:00:04.321Z,3.85
2023-05-05T11:01:06.941Z,3.33
2023-05-05T11:02:28.493Z,3.70
2023-05-05T11:03:30.606Z,3.47
2023-05-05T11:04:32.723Z,3.20
2023-05-05T11:05:34.554Z,3.35
2023-05-05T11:06:36.263Z,4.03
2023-05-05T11:07:38.670Z,3.85
2023-05-05T11:08:42.584Z,3.67
2023-05-05T11:10:03.854Z,3.63
2023-05-05T11:11:05.932Z,3.85
2023-05-05T11:12:08.530Z,3.83
2023-05-05T11:13:10.374Z,3.30
2023-05-05T11:14:24.173Z,3.45
2023-05-05T11:15:28.969Z,3.70
2023-05-05T11:16:50.186Z,3.40
2023-05-05T11:17:52.789Z,3.83
2023-05-05T11:18:54.623Z,3.63
2023-05-05T11:19:56.526Z,4.55
2023-05-05T11:20:58.008Z,4.07
2023-05-05T11:22:01.767Z,3.45
2023-05-05T11:23:03.566Z,3.60
2023-05-05T11:24:36.401Z,3.50
2023-05-05T11:25:41.037Z,3.70
2023-05-05T11:26:51.388Z,3.05
2023-05-05T11:28:10.502Z,3.72
2023-05-05T11:29:12.327Z,3.53
2023-05-05T11:30:15.107Z,3.67
2023-05-05T11:31:17.913Z,3.50
2023-05-05T11:32:19.986Z,3.33
2023-05-05T11:33:30.837Z,3.03
2023-05-05T11:34:32.663Z,3.53
2023-05-05T11:35:56.350Z,3.58
2023-05-05T11:37:03.412Z,3.10
2023-05-05T11:38:08.501Z,3.20
2023-05-05T11:39:28.676Z,3.30
2023-05-05T11:40:35.310Z,3.17
2023-05-05T11:41:58.623Z,3.58
2023-05-05T11:43:07.425Z,3.53
2023-05-05T11:45:24.558Z,3.47
2023-05-05T11:46:26.258Z,3.63
2023-05-05T11:47:29.627Z,3.42
2023-05-05T11:48:32.073Z,3.83
2023-05-05T11:49:36.185Z,4.28
2023-05-05T11:50:37.890Z,3.67
2023-05-05T11:51:39.994Z,3.35
2023-05-05T11:52:41.643Z,3.33
2023-05-05T11:53:44.772Z,3.80
2023-05-05T11:54:48.931Z,3.50
2023-05-05T11:56:06.422Z,3.30
2023-05-05T11:57:08.964Z,3.35
2023-05-05T11:58:20.604Z,3.30
2023-05-05T11:59:22.754Z,3.05
2023-05-05T12:00:33.906Z,3.53
2023-05-05T12:01:39.829Z,3.65
2023-05-05T12:02:43.908Z,2.78
2023-05-05T12:03:46.524Z,2.80
2023-05-05T12:04:49.474Z,3.20
2023-05-05T12:05:55.073Z,3.40
2023-05-05T12:06:57.682Z,3.15
2023-05-05T12:07:59.901Z,3.33
2023-05-05T12:09:01.669Z,3.47
2023-05-05T12:10:03.599Z,2.80
2023-05-05T12:11:07.887Z,3.60
2023-05-05T12:12:09.718Z,2.80
2023-05-05T12:13:21.149Z,3.58
2023-05-05T12:14:24.713Z,3.25
2023-05-05T12:15:30.786Z,3.17
2023-05-05T12:16:32.913Z,3.53
2023-05-05T12:17:44.994Z,3.63
2023-05-05T12:18:46.749Z,3.50
2023-05-05T12:19:55.344Z,3.30
2023-05-05T12:20:56.921Z,3.05
2023-05-05T12:22:02.586Z,3.30
2023-05-05T12:23:04.910Z,3.03
2023-05-05T12:24:07.043Z,3.95
2023-05-05T12:25:09.625Z,3.63
2023-05-05T12:26:31.748Z,3.80
2023-05-05T12:27:35.230Z,2.90
2023-05-05T12:28:46.537Z,3.00
2023-05-05T12:29:48.548Z,2.75
2023-05-05T12:30:57.733Z,3.63
2023-05-05T12:32:00.518Z,3.13
2023-05-05T12:33:06.490Z,3.67
2023-05-05T12:34:09.696Z,3.35
2023-05-05T12:35:12.245Z,3.72
2023-05-05T12:36:15.254Z,3.63
2023-05-05T12:37:19.504Z,3.60
2023-05-05T12:38:21.534Z,3.10
2023-05-05T12:39:23.233Z,3.47
2023-05-05T12:40:51.825Z,3.40
2023-05-05T12:42:03.164Z,3.20
2023-05-05T12:43:04.845Z,3.67
2023-05-05T12:44:06.722Z,3.35
2023-05-05T12:45:17.501Z,3.15
2023-05-05T12:46:20.097Z,3.28
2023-05-05T12:47:32.323Z,3.30
2023-05-05T12:48:38.507Z,3.67
2023-05-05T12:49:46.843Z,2.90
2023-05-05T12:50:48.607Z,3.60
2023-05-05T12:51:57.080Z,3.30
2023-05-05T12:52:58.827Z,3.00
2023-05-05T12:54:07.589Z,2.80
2023-05-05T12:56:44.306Z,3.30
2023-05-05T12:58:04.709Z,3.47
2023-05-05T12:59:11.493Z,3.28
2023-05-05T13:00:16.051Z,3.28
2023-05-05T13:01:17.763Z,3.53
2023-05-05T13:02:20.830Z,2.72
2023-05-05T13:03:22.920Z,3.15
2023-05-05T13:04:26.398Z,3.42
2023-05-05T13:05:32.765Z,3.65
2023-05-05T13:06:37.808Z,3.22
2023-05-05T13:07:51.991Z,3.85
2023-05-05T13:08:53.907Z,3.35
2023-05-05T13:10:11.430Z,3.08
2023-05-05T13:11:13.023Z,3.20
2023-05-05T13:12:17.278Z,3.67
2023-05-05T13:13:19.060Z,3.70
2023-05-05T13:14:21.349Z,3.28
2023-05-05T13:15:23.687Z,3.50
2023-05-05T13:16:25.451Z,2.88
2023-05-05T13:17:27.194Z,3.47
2023-05-05T13:18:29.460Z,3.47
2023-05-05T13:19:31.073Z,3.38
2023-05-05T13:20:32.839Z,3.20
2023-05-05T13:21:34.805Z,3.20
2023-05-05T13:22:36.635Z,3.35
2023-05-05T13:23:38.442Z,3.13
2023-05-05T13:24:50.719Z,3.22
2023-05-05T13:25:53.810Z,3.40
2023-05-05T13:26:56.532Z,3.75
2023-05-05T13:27:58.542Z,3.65
2023-05-05T13:29:00.358Z,3.90
2023-05-05T13:30:02.119Z,3.20
2023-05-05T13:31:03.758Z,3.33
2023-05-05T13:32:05.524Z,3.65
2023-05-05T13:33:07.213Z,3.75
2023-05-05T13:34:08.906Z,3.42
2023-05-05T13:35:11.716Z,3.60
2023-05-05T13:36:14.977Z,3.58
2023-05-05T13:37:16.614Z,3.67
2023-05-05T13:38:18.377Z,4.05
2023-05-05T13:39:20.587Z,3.45
2023-05-05T13:40:24.521Z,3.47
2023-05-05T13:41:27.581Z,3.63
2023-05-05T13:42:29.555Z,3.25
2023-05-05T13:43:31.382Z,3.75
2023-05-05T13:44:33.041Z,3.67
2023-05-05T13:45:35.102Z,3.75
2023-05-05T13:46:36.789Z,3.30
2023-05-05T13:47:38.768Z,3.25
2023-05-05T13:48:40.766Z,3.47
2023-05-05T13:49:42.585Z,3.63
2023-05-05T13:50:44.424Z,3.20
2023-05-05T13:51:47.153Z,3.75
2023-05-05T13:52:49.041Z,3.90
2023-05-05T13:53:50.949Z,3.50
2023-05-05T13:54:53.356Z,3.72
2023-05-05T13:55:55.675Z,3.55
2023-05-05T13:56:57.962Z,3.90
2023-05-05T13:57:59.987Z,2.90
2023-05-05T13:59:02.439Z,3.83
2023-05-05T14:00:04.708Z,3.50
2023-05-05T14:01:10.712Z,2.97
2023-05-05T14:02:12.470Z,3.65
2023-05-05T14:03:14.168Z,3.10
2023-05-05T14:04:16.014Z,3.80
2023-05-05T14:05:17.982Z,3.60
2023-05-05T14:06:19.980Z,3.58
2023-05-05T14:07:21.858Z,3.30
2023-05-05T14:08:23.635Z,3.47
2023-05-05T14:09:25.381Z,3.47
2023-05-05T14:10:29.735Z,3.75
2023-05-05T14:11:31.719Z,3.10
2023-05-05T14:12:33.496Z,2.95
2023-05-05T14:13:35.196Z,3.28
2023-05-05T14:14:37.107Z,3.53
2023-05-05T14:15:38.737Z,3.75
2023-05-05T14:16:40.352Z,3.00
2023-05-05T14:17:42.004Z,3.25
2023-05-05T14:18:43.640Z,3.10
2023-05-05T14:19:45.512Z,3.85
2023-05-05T14:20:47.234Z,3.88
2023-05-05T14:21:48.846Z,3.80
2023-05-05T14:22:50.698Z,3.25
2023-05-05T14:23:52.713Z,3.13
2023-05-05T14:24:56.787Z,3.13
2023-05-05T14:25:58.609Z,2.65
2023-05-05T14:27:00.192Z,3.25
2023-05-05T14:28:01.821Z,3.72
2023-05-05T14:29:03.964Z,4.43
2023-05-05T14:30:06.883Z,3.75
2023-05-05T14:31:08.809Z,3.28